Welcome to the New NWS' Forecast!
Most changes are behind the scenes, but click here for differences you might notice.

Terminal Aerodrome Forecast (TAF)

Issued by National Weather Service (NWS)

                            
439 
FTUS42 KKEY 160930 AAA
TAFEYW
TAF AMD
KEYW 160930Z 1610/1706 11011KT P6SM SCT025 BKN100
     FM161200 11013KT P6SM SCT025=